Latest Weather Observations for Camden

IDN60801

Issued at 5:13 pm EST Sunday 11 April 2021 (issued every 10 minutes, with the page automatically refreshed every 10 minutes)

About weather observations | Map of weather stations | Latest weather observations for NSW | Other Formats
Station Details ID: 068192 Name: CAMDEN AIRPORT AWS Lat: -34.04 Lon: 150.69 Height: 73.9 m
Data from the previous 72 hours. | See also: Recent months at Camden
Date/Time
EST
Temp
°C
App
Temp
°C
Dew
Point
°C
Rel
Hum
%
Delta-T
°C
Wind Press
QNH
hPa
Press
MSL
hPa
Rain since
9am
mm
Dir  Spd
km/h
Gust
km/h
Spd
kts
Gust
kts
11/05:00pm 15.4 9.6 0.0 35 6.6 WSW 20 35 11 19 1012.3 1012.2 0.0
11/04:30pm 16.0 9.0 -0.2 33 6.9 WSW 26 41 14 22 1011.9 1011.8 0.0
11/04:00pm 16.3 8.1 -0.8 31 7.2 WSW 32 44 17 24 1011.5 1011.4 0.0
11/03:30pm 16.7 8.1 -0.1 32 7.2 WSW 35 50 19 27 1011.3 1011.2 0.0
11/03:17pm 16.6 7.1 -0.6 31 7.3 WSW 39 57 21 31 1011.0 1010.9 0.0
11/03:00pm 17.5 9.5 0.6 32 7.4 W 32 43 17 23 1010.9 1010.8 0.0
11/02:36pm 17.4 9.8 0.6 32 7.4 W 30 50 16 27 1010.5 1010.4 0.0
11/02:30pm 17.4 9.8 0.6 32 7.4 W 30 43 16 23 1010.5 1010.4 0.0
11/02:00pm 17.1 10.6 0.3 32 7.3 WSW 24 43 13 23 1010.5 1010.4 0.0
11/01:30pm 16.9 7.9 0.1 32 7.3 WSW 37 48 20 26 1010.3 1010.2 0.0
11/01:00pm 17.1 9.0 0.7 33 7.2 WSW 33 56 18 30 1010.1 1010.0 0.0
11/12:55pm 16.6 8.3 -0.6 31 7.3 WSW 33 56 18 30 1010.1 1010.0 0.0
11/12:30pm 17.0 9.4 0.6 33 7.2 W 30 43 16 23 1010.2 1010.1 0.0
11/12:00pm 17.0 9.5 1.0 34 7.1 WSW 30 43 16 23 1010.3 1010.2 0.0
11/11:42am 16.5 8.5 0.6 34 6.9 WSW 32 50 17 27 1010.2 1010.1 0.0
11/11:30am 16.1 8.1 0.7 35 6.7 WSW 32 46 17 25 1010.4 1010.3 0.0
11/11:00am 16.2 8.0 0.3 34 6.9 W 33 54 18 29 1010.3 1010.2 0.0
11/10:59am 15.9 7.7 0.1 34 6.8 W 33 54 18 29 1010.2 1010.1 0.0
11/10:30am 15.5 6.6 0.5 36 6.5 WSW 37 52 20 28 1010.5 1010.4 0.0
11/10:03am 15.0 7.3 0.1 36 6.3 WSW 30 54 16 29 1010.6 1010.5 0.0
11/10:00am 16.0 9.0 2.1 39 6.2 WSW 28 39 15 21 1010.6 1010.5 0.0
11/09:30am 14.8 6.6 0.3 37 6.2 WSW 33 48 18 26 1010.5 1010.4 0.0
11/09:00am 14.7 7.5 0.5 38 6.1 W 28 43 15 23 1010.3 1010.2 0.0
11/08:36am 14.4 6.5 1.0 40 5.8 WSW 32 50 17 27 1010.1 1010.0 0.0
11/08:30am 14.6 6.2 1.5 41 5.7 W 35 56 19 30 1010.0 1009.9 0.0
11/08:09am 14.6 7.9 1.5 41 5.7 WNW 26 50 14 27 1009.4 1009.3 0.0
11/08:00am 14.4 8.2 2.3 44 5.4 WSW 24 33 13 18 1009.8 1009.7 0.0
11/07:30am 13.9 5.1 1.5 43 5.4 WSW 37 56 20 30 1009.7 1009.6 0.0
11/07:23am 14.0 6.5 1.3 42 5.5 WSW 30 54 16 29 1009.7 1009.6 0.0
11/07:00am 13.7 8.3 2.3 46 5.0 W 20 28 11 15 1009.2 1009.0 0.0
11/06:43am 14.3 7.2 1.6 42 5.5 WSW 28 44 15 24 1009.0 1008.8 0.0
11/06:30am 13.9 9.5 2.5 46 5.0 WSW 15 20 8 11 1008.9 1008.7 0.0
11/06:07am 14.7 7.8 2.6 44 5.4 WSW 28 48 15 26 1008.5 1008.3 0.0
11/06:00am 14.7 7.5 2.9 45 5.3 WSW 30 44 16 24 1008.4 1008.2 0.0
11/05:30am 14.1 9.3 4.9 54 4.3 W 19 28 10 15 1007.7 1007.5 0.0
11/05:00am 11.1 9.9 6.6 74 2.1 N 2 9 1 5 1007.4 1007.2 0.0
11/04:30am 12.7 10.2 6.5 66 3.0 WSW 9 13 5 7 1007.3 1007.1 0.0
11/04:00am 12.7 9.8 6.7 67 2.9 WSW 11 13 6 7 1007.2 1007.0 0.0
11/03:30am 11.9 8.9 7.6 75 2.1 W 13 17 7 9 1007.1 1006.9 0.0
11/03:00am 9.2 7.4 7.8 91 0.7 WNW 7 9 4 5 1007.0 1006.8 0.0
11/02:30am 9.3 7.4 7.4 88 0.9 NNW 7 9 4 5 1007.2 1007.0 0.0
11/02:00am 9.1 8.3 6.7 85 1.1 CALM 0 6 0 3 1007.4 1007.2 0.0
11/01:30am 9.7 8.9 6.4 80 1.5 CALM 0 0 0 0 1007.5 1007.3 0.0
11/01:00am 10.5 9.7 6.5 76 1.9 CALM 0 0 0 0 1007.8 1007.6 0.0
11/12:30am 11.8 11.0 6.5 70 2.5 CALM 0 0 0 0 1008.0 1007.8 0.0
11/12:00am 13.9 11.4 4.8 54 4.2 SW 7 11 4 6 1008.2 1008.0 0.0
 
Date/Time
EST
Temp
°C
App
Temp
°C
Dew
Point
°C
Rel
Hum
%
Delta-T
°C
Wind Press
QNH
hPa
Press
MSL
hPa
Rain since
9am
mm
Dir  Spd
km/h
Gust
km/h
Spd
kts
Gust
kts
10/11:30pm 13.8 11.3 4.7 54 4.2 WSW 7 11 4 6 1008.2 1008.0 0.0
10/11:00pm 13.9 10.2 4.5 53 4.4 WSW 13 17 7 9 1008.2 1008.0 0.0
10/10:30pm 14.7 11.0 4.7 51 4.7 WSW 13 15 7 8 1008.3 1008.1 0.0
10/10:00pm 14.4 10.7 4.7 52 4.5 W 13 17 7 9 1008.3 1008.1 0.0
10/09:30pm 15.2 10.9 5.1 51 4.8 W 17 28 9 15 1008.3 1008.1 0.0
10/09:00pm 14.4 10.5 5.2 54 4.3 W 15 22 8 12 1008.4 1008.2 0.0
10/08:30pm 15.4 11.0 5.0 50 4.9 WSW 17 26 9 14 1008.5 1008.3 0.0
10/08:00pm 15.6 10.7 4.9 49 5.1 WSW 20 30 11 16 1008.5 1008.3 0.0
10/07:30pm 15.5 10.6 5.1 50 4.9 WSW 20 24 11 13 1008.1 1007.9 0.0
10/07:00pm 16.1 11.5 5.4 49 5.1 WSW 19 24 10 13 1007.7 1007.5 0.0
10/06:30pm 16.3 11.1 5.3 48 5.3 WSW 22 32 12 17 1007.2 1007.0 0.0
10/06:00pm 17.0 12.3 5.3 46 5.7 WSW 19 24 10 13 1006.9 1006.7 0.0
10/05:30pm 17.7 12.5 5.3 44 6.0 WSW 22 33 12 18 1006.6 1006.4 0.0
10/05:00pm 18.4 11.3 5.3 42 6.4 WSW 32 44 17 24 1005.9 1005.7 0.0
10/04:33pm 19.8 13.1 5.8 40 6.9 W 30 48 16 26 1005.6 1005.4 0.0
10/04:30pm 19.8 12.8 5.8 40 6.9 WSW 32 48 17 26 1005.5 1005.3 0.0
10/04:00pm 20.6 15.1 5.8 38 7.4 W 24 32 13 17 1005.1 1004.9 0.0
10/03:30pm 20.9 14.5 5.3 36 7.7 WSW 28 41 15 22 1004.9 1004.7 0.0
10/03:18pm 21.5 15.0 6.6 38 7.6 WSW 30 48 16 26 1004.8 1004.6 0.0
10/03:00pm 21.4 14.7 5.7 36 7.9 WSW 30 39 16 21 1004.6 1004.4 0.0
10/02:42pm 21.7 15.4 5.6 35 8.1 WSW 28 46 15 25 1004.4 1004.2 0.0
10/02:30pm 21.7 16.1 5.6 35 8.1 WSW 24 35 13 19 1004.4 1004.2 0.0
10/02:00pm 22.1 16.4 6.7 37 7.9 WSW 26 35 14 19 1004.4 1004.2 0.0
10/01:30pm 21.5 15.1 5.0 34 8.2 WSW 28 41 15 22 1004.5 1004.3 0.0
10/01:00pm 21.4 15.7 4.9 34 8.2 WSW 24 32 13 17 1004.8 1004.6 0.0
10/12:30pm 21.4 15.4 5.3 35 8.0 WSW 26 37 14 20 1004.9 1004.7 0.0
10/12:00pm 21.1 15.4 5.1 35 7.9 WSW 24 35 13 19 1005.5 1005.3 0.0
10/11:30am 20.6 14.8 4.6 35 7.8 WSW 24 35 13 19 1005.6 1005.4 0.0
10/11:29am 20.8 15.5 5.2 36 7.7 WSW 22 35 12 19 1005.7 1005.5 0.0
10/11:00am 20.6 17.9 8.9 47 6.2 NW 13 17 7 9 1006.2 1006.0 0.0
10/10:30am 19.0 14.9 7.8 48 5.7 WSW 19 24 10 13 1006.4 1006.2 0.0
10/10:00am 17.5 15.9 8.6 56 4.6 SW 7 11 4 6 1007.0 1006.8 0.0
10/09:30am 16.8 15.3 9.0 60 4.0 W 7 11 4 6 1007.4 1007.2 0.0
10/09:00am 15.8 14.5 10.1 69 3.0 NW 7 9 4 5 1007.4 1007.2 0.0
10/08:30am 14.8 12.9 9.2 69 2.9 SSW 9 11 5 6 1007.6 1007.4 0.0
10/08:00am 14.6 13.5 10.0 74 2.4 WSW 6 9 3 5 1007.6 1007.4 0.0
10/07:30am 14.6 12.0 9.4 71 2.7 WSW 13 15 7 8 1007.5 1007.3 0.0
10/07:00am 15.4 12.6 8.6 64 3.5 SSW 13 19 7 10 1006.9 1006.7 0.0
10/06:30am 14.1 14.2 13.9 99 0.1 SSW 6 9 3 5 1007.0 1006.8 0.0
10/06:00am 14.1 14.0 13.9 99 0.1 WSW 7 13 4 7 1007.3 1007.1 0.0
10/05:30am 14.0 14.8 13.8 99 0.1 SSE 2 9 1 5 1006.3 1006.1 0.0
10/05:14am 14.4 15.7 14.2 99 0.1 CALM 0 0 0 0 1006.4 1006.2 0.0
10/05:00am 14.4 15.7 14.2 99 0.1 CALM 0 0 0 0 1006.2 1006.0 0.0
10/04:55am 14.3 15.6 14.1 99 0.1 CALM 0 0 0 0 1006.1 1005.9 0.0
10/04:30am 14.6 16.0 14.4 99 0.1 CALM 0 0 0 0 1005.9 1005.7 0.0
10/04:00am 14.7 15.8 14.5 99 0.1 N 2 7 1 4 1005.8 1005.6 0.0
10/03:30am 15.4 17.1 15.2 99 0.1 CALM 0 6 0 3 1006.3 1006.1 0.0
10/03:00am 15.4 17.1 15.2 99 0.1 CALM 0 0 0 0 1006.0 1005.8 0.0
10/02:30am 15.4 16.3 15.2 99 0.1 NNW 4 11 2 6 1006.4 1006.2 0.0
10/02:00am 15.3 15.6 15.1 99 0.1 SSE 7 7 4 4 1006.0 1005.8 0.0
10/01:30am 14.8 16.1 14.0 95 0.5 CALM 0 0 0 0 1006.2 1006.0 0.0
10/01:00am 15.3 15.4 14.5 95 0.5 ESE 7 9 4 5 1006.4 1006.2 0.0
10/12:30am 15.9 16.9 14.4 91 0.9 WSW 2 6 1 3 1006.9 1006.7 0.0
10/12:00am 16.0 17.4 14.5 91 0.9 CALM 0 0 0 0 1006.8 1006.6 0.0
 
Date/Time
EST
Temp
°C
App
Temp
°C
Dew
Point
°C
Rel
Hum
%
Delta-T
°C
Wind Press
QNH
hPa
Press
MSL
hPa
Rain since
9am
mm
Dir  Spd
km/h
Gust
km/h
Spd
kts
Gust
kts
09/11:30pm 16.6 17.8 15.0 90 0.9 SW 2 7 1 4 1006.9 1006.7 0.0
09/11:00pm 16.5 16.8 14.5 88 1.2 WSW 6 7 3 4 1007.2 1007.0 0.0
09/10:30pm 17.5 19.2 15.3 87 1.3 CALM 0 0 0 0 1007.4 1007.2 0.0
09/10:00pm 17.6 19.4 15.6 88 1.2 CALM 0 0 0 0 1007.5 1007.3 0.0
09/09:30pm 17.7 19.3 14.8 83 1.7 CALM 0 0 0 0 1007.2 1007.0 0.0
09/09:00pm 17.8 19.0 14.9 83 1.7 SSW 2 11 1 6 1007.1 1006.9 0.0
09/08:30pm 18.2 18.1 14.9 81 1.9 S 9 15 5 8 1006.8 1006.6 0.0
09/08:00pm 18.7 18.0 15.4 81 2.0 S 13 19 7 10 1006.4 1006.2 0.0
09/07:30pm 18.8 19.5 15.5 81 2.0 SSE 6 9 3 5 1005.9 1005.7 0.0
09/07:00pm 19.5 19.7 15.8 79 2.2 SSE 9 13 5 7 1005.0 1004.8 0.0
09/06:30pm 20.5 19.5 15.7 74 2.9 SE 15 24 8 13 1004.3 1004.1 0.0
09/06:00pm 23.2 20.8 12.8 52 6.0 SSW 17 22 9 12 1003.8 1003.6 0.0
09/05:30pm 25.8 22.6 8.3 33 9.4 SW 15 24 8 13 1003.1 1002.9 0.0
09/05:00pm 27.0 22.4 8.0 30 10.3 WSW 22 30 12 16 1002.5 1002.3 0.0
09/04:30pm 27.9 23.2 7.7 28 10.9 WSW 22 33 12 18 1002.2 1002.0 0.0
09/04:00pm 28.4 29.3 15.0 44 8.2 NW 4 11 2 6 1002.0 1001.8 0.0
09/03:30pm 28.2 28.5 16.1 47 7.5 NNW 9 17 5 9 1001.8 1001.6 0.0
09/03:00pm 27.7 27.2 15.0 45 7.8 NNW 11 15 6 8 1001.9 1001.7 0.0
09/02:30pm 27.7 28.1 15.4 47 7.5 NNE 7 11 4 6 1001.8 1001.6 0.0
09/02:00pm 27.0 27.6 16.9 54 6.3 N 9 11 5 6 1002.1 1001.9 0.0
09/01:30pm - - - - - NNE 4 9 2 5 1002.8 1002.6 0.0
09/01:00pm - - - - - CALM 0 2 0 1 1003.2 1003.0 0.0
09/12:30pm 20.6 23.0 18.9 90 1.1 S 4 9 2 5 1003.7 1003.5 0.0
09/12:00pm 19.2 22.0 17.9 92 0.8 CALM 0 0 0 0 1004.2 1004.0 0.0
09/11:30am 18.8 21.4 17.6 93 0.7 CALM 0 0 0 0 1004.5 1004.3 0.0
09/11:00am 18.6 21.1 17.3 92 0.8 CALM 0 0 0 0 1005.0 1004.8 0.0
09/10:30am 18.6 21.2 17.4 93 0.7 CALM 0 0 0 0 1004.9 1004.7 0.0
09/10:00am 18.6 21.3 17.8 95 0.5 CALM 0 0 0 0 1005.4 1005.2 0.0
09/09:34am 18.1 20.9 17.9 99 0.1 CALM 0 0 0 0 1005.5 1005.3 0.0
09/09:30am 17.5 20.0 17.3 99 0.1 CALM 0 6 0 3 1005.6 1005.4 0.0
09/09:00am 16.9 19.3 16.9 100 0.0 CALM 0 0 0 0 1005.9 1005.7 0.2
09/08:55am 16.7 19.0 16.7 100 0.0 CALM 0 0 0 0 1006.0 1005.8 -
09/08:30am 16.1 18.1 16.1 100 0.0 CALM 0 0 0 0 1006.2 1006.0 -
09/08:24am 15.8 17.7 15.8 100 0.0 CALM 0 0 0 0 1006.3 1006.1 -
09/08:00am 15.3 17.0 15.1 99 0.1 CALM 0 0 0 0 1006.1 1005.9 -
09/07:30am 14.5 15.9 14.3 99 0.1 CALM 0 6 0 3 1006.0 1005.8 -
09/07:00am 14.2 15.5 14.0 99 0.1 CALM 0 0 0 0 1006.0 1005.8 -
09/06:30am 14.1 15.3 13.9 99 0.1 CALM 0 0 0 0 1005.7 1005.5 -
09/06:00am 14.1 15.3 13.9 99 0.1 CALM 0 0 0 0 1005.7 1005.5 -
09/05:30am 14.0 15.2 13.8 99 0.1 CALM 0 0 0 0 1005.8 1005.6 -
09/05:00am 14.2 15.5 14.0 99 0.1 CALM 0 0 0 0 1005.7 1005.5 -
09/04:30am 14.0 15.2 13.8 99 0.1 CALM 0 0 0 0 1005.5 1005.3 -
09/04:00am 13.8 14.9 13.6 99 0.1 CALM 0 0 0 0 1006.0 1005.8 -
09/03:30am 13.9 15.1 13.7 99 0.1 CALM 0 0 0 0 1006.4 1006.2 -
09/03:00am 14.3 15.6 14.1 99 0.1 CALM 0 0 0 0 1006.5 1006.3 0.0
09/02:30am 14.5 15.9 14.3 99 0.1 CALM 0 0 0 0 1007.1 1006.9 -
09/02:00am 14.7 16.1 14.5 99 0.1 CALM 0 0 0 0 1007.3 1007.1 -
09/01:30am 14.9 16.4 14.7 99 0.1 CALM 0 0 0 0 1007.6 1007.4 -
09/01:00am 15.2 16.8 15.0 99 0.1 CALM 0 0 0 0 1008.1 1007.9 -
09/12:38am 14.8 16.3 14.6 99 0.1 CALM 0 0 0 0 1008.4 1008.2 -
09/12:36am 14.9 16.4 14.7 99 0.1 CALM 0 0 0 0 1008.3 1008.1 -
09/12:30am 15.0 16.6 14.8 99 0.1 CALM 0 0 0 0 1008.4 1008.2 -
09/12:22am 15.2 16.8 15.0 99 0.1 CALM 0 0 0 0 1008.4 1008.2 -
09/12:20am 15.4 17.1 15.2 99 0.1 CALM 0 0 0 0 1008.4 1008.2 -
09/12:00am 15.9 17.8 15.7 99 0.1 CALM 0 0 0 0 1008.7 1008.5 -
 
Date/Time
EST
Temp
°C
App
Temp
°C
Dew
Point
°C
Rel
Hum
%
Delta-T
°C
Wind Press
QNH
hPa
Press
MSL
hPa
Rain since
9am
mm
Dir  Spd
km/h
Gust
km/h
Spd
kts
Gust
kts
08/11:59pm 16.0 17.9 15.8 99 0.1 CALM 0 0 0 0 1008.7 1008.5 -
08/11:55pm 15.8 17.6 15.6 99 0.1 CALM 0 0 0 0 1008.7 1008.5 -
08/11:50pm 15.8 17.6 15.6 99 0.1 CALM 0 0 0 0 1008.8 1008.6 -
08/11:49pm 15.9 17.8 15.7 99 0.1 CALM 0 0 0 0 1008.8 1008.6 -
08/11:45pm 15.9 17.8 15.7 99 0.1 CALM 0 0 0 0 1008.9 1008.7 -
08/11:44pm 15.9 17.8 15.7 99 0.1 CALM 0 0 0 0 1008.9 1008.7 -
08/11:36pm 15.8 17.6 15.6 99 0.1 CALM 0 0 0 0 1008.9 1008.7 -
08/11:30pm 15.9 17.8 15.7 99 0.1 CALM 0 0 0 0 1009.1 1008.9 -
08/11:02pm 15.8 17.6 15.6 99 0.1 CALM 0 0 0 0 1009.4 1009.3 -
08/11:00pm 15.9 17.8 15.7 99 0.1 CALM 0 0 0 0 1009.4 1009.3 -
08/10:44pm 16.0 17.8 15.5 97 0.3 CALM 0 0 0 0 1009.5 1009.4 -
08/10:30pm 16.2 18.1 15.7 97 0.3 CALM 0 0 0 0 1009.7 1009.6 -
08/10:00pm 17.0 19.3 16.7 98 0.2 CALM 0 0 0 0 1009.9 1009.8 -
08/09:30pm 17.2 19.2 16.1 93 0.7 CALM 0 0 0 0 1010.1 1010.0 -
08/09:00pm 17.9 19.9 15.9 88 1.2 CALM 0 0 0 0 1010.0 1009.9 -
08/08:30pm 18.8 19.5 16.2 85 1.6 ENE 7 9 4 5 1010.2 1010.1 -
08/08:00pm 19.2 20.3 16.6 85 1.6 ENE 6 11 3 6 1010.1 1010.0 -
08/07:30pm 19.4 20.7 16.2 82 1.9 NE 4 9 2 5 1010.0 1009.9 -
08/07:00pm 20.1 22.2 16.3 79 2.3 CALM 0 4 0 2 1009.8 1009.7 -
08/06:30pm 20.6 21.0 16.2 76 2.7 ENE 9 15 5 8 1009.3 1009.2 -
08/06:00pm 21.1 21.2 16.5 75 2.8 ENE 11 13 6 7 1009.2 1009.0 -
08/05:30pm 22.1 21.7 16.1 69 3.6 ENE 13 17 7 9 1009.3 1009.2 -

Other formats

Comma delimited format used in spreadsheet applications
http://www.bom.gov.au/fwo/IDN60801/IDN60801.94755.axf

JavaScript Object Notation format (JSON) in row-major order
http://www.bom.gov.au/fwo/IDN60801/IDN60801.94755.json

Data quality

Most of these data are generated automatically and are frequently updated. Quality checks on data are not normally performed. It is possible for incorrect values to appear. Refer to information at About Latest Weather Observations and please check the disclaimer before using these data.